sensor_id;sensor_type;location;lat;lon;timestamp;temperature;humidity
40996;DHT22;26723;57.478;12.066;2022-08-03T00:06:05;17.60;99.90
40996;DHT22;26723;57.478;12.066;2022-08-03T00:13:07;17.60;99.90
40996;DHT22;26723;57.478;12.066;2022-08-03T00:21:24;17.70;99.90
40996;DHT22;26723;57.478;12.066;2022-08-03T00:25:31;17.70;99.90
40996;DHT22;26723;57.478;12.066;2022-08-03T00:37:54;17.80;99.90
40996;DHT22;26723;57.478;12.066;2022-08-03T00:41:28;17.80;99.90
40996;DHT22;26723;57.478;12.066;2022-08-03T00:45:41;17.80;99.90
40996;DHT22;26723;57.478;12.066;2022-08-03T00:49:41;17.80;99.90
40996;DHT22;26723;57.478;12.066;2022-08-03T00:53:28;17.80;99.90
40996;DHT22;26723;57.478;12.066;2022-08-03T00:57:41;17.90;99.90
40996;DHT22;26723;57.478;12.066;2022-08-03T01:00:42;17.90;99.90
40996;DHT22;26723;57.478;12.066;2022-08-03T01:04:24;17.90;99.90
40996;DHT22;26723;57.478;12.066;2022-08-03T01:08:22;17.90;99.90
40996;DHT22;26723;57.478;12.066;2022-08-03T01:12:09;18.00;99.90
40996;DHT22;26723;57.478;12.066;2022-08-03T01:16:18;18.00;99.90
40996;DHT22;26723;57.478;12.066;2022-08-03T01:20:03;18.00;99.90
40996;DHT22;26723;57.478;12.066;2022-08-03T01:28:01;18.00;99.90
40996;DHT22;26723;57.478;12.066;2022-08-03T01:36:31;18.00;99.90
40996;DHT22;26723;57.478;12.066;2022-08-03T01:40:48;18.10;99.90
40996;DHT22;26723;57.478;12.066;2022-08-03T01:44:32;18.10;99.90
40996;DHT22;26723;57.478;12.066;2022-08-03T01:48:16;18.10;99.90
40996;DHT22;26723;57.478;12.066;2022-08-03T01:51:53;18.10;99.90
40996;DHT22;26723;57.478;12.066;2022-08-03T01:56:00;18.00;99.90
40996;DHT22;26723;57.478;12.066;2022-08-03T01:59:22;18.10;99.90
40996;DHT22;26723;57.478;12.066;2022-08-03T02:07:55;18.10;99.90
40996;DHT22;26723;57.478;12.066;2022-08-03T02:11:52;18.10;99.90
40996;DHT22;26723;57.478;12.066;2022-08-03T02:15:38;18.20;99.90
40996;DHT22;26723;57.478;12.066;2022-08-03T02:32:13;18.20;99.90
40996;DHT22;26723;57.478;12.066;2022-08-03T02:35:28;18.20;99.90
40996;DHT22;26723;57.478;12.066;2022-08-03T02:39:10;18.30;99.90
40996;DHT22;26723;57.478;12.066;2022-08-03T02:43:11;18.30;99.90
40996;DHT22;26723;57.478;12.066;2022-08-03T02:46:52;18.30;99.90
40996;DHT22;26723;57.478;12.066;2022-08-03T02:50:21;18.30;99.90
40996;DHT22;26723;57.478;12.066;2022-08-03T02:53:40;18.30;99.90
40996;DHT22;26723;57.478;12.066;2022-08-03T02:57:21;18.30;99.90
40996;DHT22;26723;57.478;12.066;2022-08-03T03:01:40;18.40;99.90
40996;DHT22;26723;57.478;12.066;2022-08-03T03:05:28;18.40;99.90
40996;DHT22;26723;57.478;12.066;2022-08-03T03:13:41;18.40;99.90
40996;DHT22;26723;57.478;12.066;2022-08-03T03:17:21;18.40;99.90
40996;DHT22;26723;57.478;12.066;2022-08-03T03:21:09;18.50;99.90
40996;DHT22;26723;57.478;12.066;2022-08-03T03:25:29;18.50;99.90
40996;DHT22;26723;57.478;12.066;2022-08-03T03:31:15;18.50;99.90
40996;DHT22;26723;57.478;12.066;2022-08-03T03:33:02;18.50;99.90
40996;DHT22;26723;57.478;12.066;2022-08-03T03:36:34;18.50;99.90
40996;DHT22;26723;57.478;12.066;2022-08-03T03:40:00;18.50;99.90
40996;DHT22;26723;57.478;12.066;2022-08-03T03:44:12;18.50;99.90
40996;DHT22;26723;57.478;12.066;2022-08-03T03:57:27;18.50;99.90
40996;DHT22;26723;57.478;12.066;2022-08-03T04:01:13;18.50;99.90
40996;DHT22;26723;57.478;12.066;2022-08-03T04:04:45;18.50;99.90
40996;DHT22;26723;57.478;12.066;2022-08-03T04:08:18;18.50;99.90
40996;DHT22;26723;57.478;12.066;2022-08-03T04:11:54;18.40;99.90
40996;DHT22;26723;57.478;12.066;2022-08-03T04:15:40;18.40;99.90
40996;DHT22;26723;57.478;12.066;2022-08-03T04:19:21;18.40;99.90
40996;DHT22;26723;57.478;12.066;2022-08-03T04:22:35;18.40;99.90
40996;DHT22;26723;57.478;12.066;2022-08-03T04:26:37;18.40;99.90
40996;DHT22;26723;57.478;12.066;2022-08-03T04:30:06;18.40;99.90
40996;DHT22;26723;57.478;12.066;2022-08-03T04:33:31;18.50;99.90
40996;DHT22;26723;57.478;12.066;2022-08-03T04:36:49;18.40;99.90
40996;DHT22;26723;57.478;12.066;2022-08-03T04:40:14;18.40;99.90
40996;DHT22;26723;57.478;12.066;2022-08-03T04:48:12;18.40;99.90
40996;DHT22;26723;57.478;12.066;2022-08-03T04:51:59;18.50;99.90
40996;DHT22;26723;57.478;12.066;2022-08-03T04:55:49;18.50;99.90
40996;DHT22;26723;57.478;12.066;2022-08-03T04:59:48;18.50;99.90
40996;DHT22;26723;57.478;12.066;2022-08-03T05:07:25;18.50;99.90
40996;DHT22;26723;57.478;12.066;2022-08-03T05:11:07;18.60;99.90
40996;DHT22;26723;57.478;12.066;2022-08-03T05:14:40;18.60;99.90
40996;DHT22;26723;57.478;12.066;2022-08-03T05:18:11;18.60;99.90
40996;DHT22;26723;57.478;12.066;2022-08-03T05:21:21;18.70;99.90
40996;DHT22;26723;57.478;12.066;2022-08-03T05:25:16;18.70;99.90
40996;DHT22;26723;57.478;12.066;2022-08-03T05:28:45;18.90;99.90
40996;DHT22;26723;57.478;12.066;2022-08-03T05:32:11;19.10;99.90
40996;DHT22;26723;57.478;12.066;2022-08-03T05:35:40;19.10;99.90
40996;DHT22;26723;57.478;12.066;2022-08-03T05:39:29;19.20;99.90
40996;DHT22;26723;57.478;12.066;2022-08-03T05:43:50;19.10;99.90
40996;DHT22;26723;57.478;12.066;2022-08-03T05:47:32;19.00;99.90
40996;DHT22;26723;57.478;12.066;2022-08-03T05:52:37;19.00;99.90
40996;DHT22;26723;57.478;12.066;2022-08-03T05:55:57;19.00;99.90
40996;DHT22;26723;57.478;12.066;2022-08-03T05:59:57;19.00;99.90
40996;DHT22;26723;57.478;12.066;2022-08-03T06:04:15;19.00;99.90
40996;DHT22;26723;57.478;12.066;2022-08-03T06:08:11;19.20;99.90
40996;DHT22;26723;57.478;12.066;2022-08-03T06:11:31;19.20;99.90
40996;DHT22;26723;57.478;12.066;2022-08-03T06:14:44;19.30;99.90
40996;DHT22;26723;57.478;12.066;2022-08-03T06:18:12;19.30;99.90
40996;DHT22;26723;57.478;12.066;2022-08-03T06:21:28;19.40;99.90
40996;DHT22;26723;57.478;12.066;2022-08-03T06:24:44;19.40;99.90
40996;DHT22;26723;57.478;12.066;2022-08-03T06:28:05;19.40;99.90
40996;DHT22;26723;57.478;12.066;2022-08-03T06:31:41;19.40;99.90
40996;DHT22;26723;57.478;12.066;2022-08-03T06:35:08;19.50;99.90
40996;DHT22;26723;57.478;12.066;2022-08-03T06:38:22;19.40;99.90
40996;DHT22;26723;57.478;12.066;2022-08-03T06:41:43;19.50;99.90
40996;DHT22;26723;57.478;12.066;2022-08-03T06:44:52;19.60;99.90
40996;DHT22;26723;57.478;12.066;2022-08-03T06:48:05;19.60;99.90
40996;DHT22;26723;57.478;12.066;2022-08-03T06:51:16;19.70;99.90
40996;DHT22;26723;57.478;12.066;2022-08-03T06:54:24;19.80;99.90
40996;DHT22;26723;57.478;12.066;2022-08-03T06:57:34;19.80;99.90
40996;DHT22;26723;57.478;12.066;2022-08-03T07:00:48;19.90;99.90
40996;DHT22;26723;57.478;12.066;2022-08-03T07:04:05;19.90;99.90
40996;DHT22;26723;57.478;12.066;2022-08-03T07:07:23;19.90;99.90
40996;DHT22;26723;57.478;12.066;2022-08-03T07:10:41;19.90;99.90
40996;DHT22;26723;57.478;12.066;2022-08-03T07:13:50;20.00;99.90
40996;DHT22;26723;57.478;12.066;2022-08-03T07:17:02;20.00;99.90
40996;DHT22;26723;57.478;12.066;2022-08-03T07:20:18;20.20;99.90
40996;DHT22;26723;57.478;12.066;2022-08-03T07:23:30;20.30;99.90
40996;DHT22;26723;57.478;12.066;2022-08-03T07:26:39;20.40;99.90
40996;DHT22;26723;57.478;12.066;2022-08-03T07:29:56;20.40;99.90
40996;DHT22;26723;57.478;12.066;2022-08-03T07:33:09;20.50;99.90
40996;DHT22;26723;57.478;12.066;2022-08-03T07:36:18;20.70;99.90
40996;DHT22;26723;57.478;12.066;2022-08-03T07:39:28;20.90;99.90
40996;DHT22;26723;57.478;12.066;2022-08-03T07:42:39;21.00;99.90
40996;DHT22;26723;57.478;12.066;2022-08-03T07:46:01;21.30;99.90
40996;DHT22;26723;57.478;12.066;2022-08-03T07:49:13;21.00;99.90
40996;DHT22;26723;57.478;12.066;2022-08-03T07:52:22;20.90;99.90
40996;DHT22;26723;57.478;12.066;2022-08-03T08:00:28;20.70;99.90
40996;DHT22;26723;57.478;12.066;2022-08-03T08:03:38;20.50;99.90
40996;DHT22;26723;57.478;12.066;2022-08-03T08:07:12;20.40;99.90
40996;DHT22;26723;57.478;12.066;2022-08-03T08:10:27;20.30;99.90
40996;DHT22;26723;57.478;12.066;2022-08-03T08:13:36;20.20;99.90
40996;DHT22;26723;57.478;12.066;2022-08-03T08:16:47;20.10;99.90
40996;DHT22;26723;57.478;12.066;2022-08-03T08:20:03;20.20;99.90
40996;DHT22;26723;57.478;12.066;2022-08-03T08:23:38;20.30;99.90
40996;DHT22;26723;57.478;12.066;2022-08-03T08:27:25;20.40;99.90
40996;DHT22;26723;57.478;12.066;2022-08-03T08:31:00;20.40;99.90
40996;DHT22;26723;57.478;12.066;2022-08-03T08:34:11;20.50;99.90
40996;DHT22;26723;57.478;12.066;2022-08-03T08:37:26;20.60;99.90
40996;DHT22;26723;57.478;12.066;2022-08-03T08:40:40;20.60;99.90
40996;DHT22;26723;57.478;12.066;2022-08-03T08:43:53;20.60;99.90
40996;DHT22;26723;57.478;12.066;2022-08-03T08:47:07;20.50;99.90
40996;DHT22;26723;57.478;12.066;2022-08-03T08:50:21;20.50;99.90
40996;DHT22;26723;57.478;12.066;2022-08-03T08:53:44;20.40;99.90
40996;DHT22;26723;57.478;12.066;2022-08-03T08:57:06;20.40;99.90
40996;DHT22;26723;57.478;12.066;2022-08-03T09:00:38;20.40;99.90
40996;DHT22;26723;57.478;12.066;2022-08-03T09:03:47;20.40;99.90
40996;DHT22;26723;57.478;12.066;2022-08-03T09:06:57;20.40;99.90
40996;DHT22;26723;57.478;12.066;2022-08-03T09:10:26;20.40;99.90
40996;DHT22;26723;57.478;12.066;2022-08-03T09:13:37;20.30;99.90
40996;DHT22;26723;57.478;12.066;2022-08-03T09:16:56;20.30;99.90
40996;DHT22;26723;57.478;12.066;2022-08-03T09:20:11;20.30;99.90
40996;DHT22;26723;57.478;12.066;2022-08-03T09:23:29;20.40;99.90
40996;DHT22;26723;57.478;12.066;2022-08-03T09:27:13;20.40;99.90
40996;DHT22;26723;57.478;12.066;2022-08-03T09:30:28;20.50;99.90
40996;DHT22;26723;57.478;12.066;2022-08-03T09:33:49;20.60;99.90
40996;DHT22;26723;57.478;12.066;2022-08-03T09:37:00;20.70;99.90
40996;DHT22;26723;57.478;12.066;2022-08-03T09:40:33;20.90;99.90
40996;DHT22;26723;57.478;12.066;2022-08-03T09:43:56;21.00;99.90
40996;DHT22;26723;57.478;12.066;2022-08-03T09:47:13;21.10;99.90
40996;DHT22;26723;57.478;12.066;2022-08-03T09:50:49;21.10;99.90
40996;DHT22;26723;57.478;12.066;2022-08-03T09:54:36;21.10;99.90
40996;DHT22;26723;57.478;12.066;2022-08-03T09:58:04;21.10;99.90
40996;DHT22;26723;57.478;12.066;2022-08-03T10:01:16;21.00;99.90
40996;DHT22;26723;57.478;12.066;2022-08-03T10:04:31;20.90;99.90
40996;DHT22;26723;57.478;12.066;2022-08-03T10:07:42;20.80;99.90
40996;DHT22;26723;57.478;12.066;2022-08-03T10:10:52;20.70;99.90
40996;DHT22;26723;57.478;12.066;2022-08-03T10:14:08;20.60;99.90
40996;DHT22;26723;57.478;12.066;2022-08-03T10:17:18;20.60;99.90
40996;DHT22;26723;57.478;12.066;2022-08-03T10:20:27;20.60;99.90
40996;DHT22;26723;57.478;12.066;2022-08-03T10:23:37;20.50;99.90
40996;DHT22;26723;57.478;12.066;2022-08-03T10:26:57;20.50;99.90
40996;DHT22;26723;57.478;12.066;2022-08-03T10:30:13;20.40;99.90
40996;DHT22;26723;57.478;12.066;2022-08-03T10:33:27;20.30;99.90
40996;DHT22;26723;57.478;12.066;2022-08-03T10:36:59;20.20;99.90
40996;DHT22;26723;57.478;12.066;2022-08-03T10:40:13;20.20;99.90
40996;DHT22;26723;57.478;12.066;2022-08-03T10:43:51;20.30;99.90
40996;DHT22;26723;57.478;12.066;2022-08-03T10:47:08;20.50;99.90
40996;DHT22;26723;57.478;12.066;2022-08-03T10:50:18;20.70;99.90
40996;DHT22;26723;57.478;12.066;2022-08-03T10:53:37;20.70;99.90
40996;DHT22;26723;57.478;12.066;2022-08-03T10:57:03;20.50;99.90
40996;DHT22;26723;57.478;12.066;2022-08-03T11:00:48;20.40;99.90
40996;DHT22;26723;57.478;12.066;2022-08-03T11:04:28;20.40;99.90
40996;DHT22;26723;57.478;12.066;2022-08-03T11:07:38;20.40;99.90
40996;DHT22;26723;57.478;12.066;2022-08-03T11:10:48;20.20;99.90
40996;DHT22;26723;57.478;12.066;2022-08-03T11:14:23;20.10;99.90
40996;DHT22;26723;57.478;12.066;2022-08-03T11:18:06;20.20;99.90
40996;DHT22;26723;57.478;12.066;2022-08-03T11:22:00;20.10;99.90
40996;DHT22;26723;57.478;12.066;2022-08-03T11:25:21;19.90;99.90
40996;DHT22;26723;57.478;12.066;2022-08-03T11:29:29;20.10;99.90
40996;DHT22;26723;57.478;12.066;2022-08-03T11:33:06;20.20;99.90
40996;DHT22;26723;57.478;12.066;2022-08-03T11:36:17;20.30;99.90
40996;DHT22;26723;57.478;12.066;2022-08-03T11:39:40;20.30;99.90
40996;DHT22;26723;57.478;12.066;2022-08-03T11:42:59;20.40;99.90
40996;DHT22;26723;57.478;12.066;2022-08-03T11:46:14;20.40;99.90
40996;DHT22;26723;57.478;12.066;2022-08-03T11:49:37;20.40;99.90
40996;DHT22;26723;57.478;12.066;2022-08-03T11:52:48;20.60;99.90
40996;DHT22;26723;57.478;12.066;2022-08-03T11:56:02;20.80;99.90
40996;DHT22;26723;57.478;12.066;2022-08-03T11:59:30;20.90;99.90
40996;DHT22;26723;57.478;12.066;2022-08-03T12:02:57;20.90;99.90
40996;DHT22;26723;57.478;12.066;2022-08-03T12:06:09;21.00;99.90
40996;DHT22;26723;57.478;12.066;2022-08-03T12:10:05;21.00;99.90
40996;DHT22;26723;57.478;12.066;2022-08-03T12:13:17;21.20;99.90
40996;DHT22;26723;57.478;12.066;2022-08-03T12:16:49;21.10;99.90
40996;DHT22;26723;57.478;12.066;2022-08-03T12:20:36;21.10;99.90
40996;DHT22;26723;57.478;12.066;2022-08-03T12:24:05;21.00;99.90
40996;DHT22;26723;57.478;12.066;2022-08-03T12:27:22;21.00;99.90
40996;DHT22;26723;57.478;12.066;2022-08-03T12:30:37;21.00;99.90
40996;DHT22;26723;57.478;12.066;2022-08-03T12:34:06;21.00;99.90
40996;DHT22;26723;57.478;12.066;2022-08-03T12:41:33;20.90;99.90
40996;DHT22;26723;57.478;12.066;2022-08-03T12:45:25;21.00;99.90
40996;DHT22;26723;57.478;12.066;2022-08-03T12:57:22;20.80;99.90
40996;DHT22;26723;57.478;12.066;2022-08-03T13:01:26;20.80;99.90
40996;DHT22;26723;57.478;12.066;2022-08-03T13:05:19;20.80;99.90
40996;DHT22;26723;57.478;12.066;2022-08-03T13:08:36;20.90;99.90
40996;DHT22;26723;57.478;12.066;2022-08-03T13:12:24;20.80;99.90
40996;DHT22;26723;57.478;12.066;2022-08-03T13:16:47;20.90;99.90
40996;DHT22;26723;57.478;12.066;2022-08-03T13:20:30;20.90;99.90
40996;DHT22;26723;57.478;12.066;2022-08-03T13:33:43;21.00;99.90
40996;DHT22;26723;57.478;12.066;2022-08-03T13:36:59;21.00;99.90
40996;DHT22;26723;57.478;12.066;2022-08-03T13:41:03;21.00;99.90
40996;DHT22;26723;57.478;12.066;2022-08-03T13:44:17;21.00;99.90
40996;DHT22;26723;57.478;12.066;2022-08-03T13:47:39;20.90;99.90
40996;DHT22;26723;57.478;12.066;2022-08-03T13:51:19;20.90;99.90
40996;DHT22;26723;57.478;12.066;2022-08-03T13:55:22;20.90;99.90
40996;DHT22;26723;57.478;12.066;2022-08-03T13:58:49;20.80;99.90
40996;DHT22;26723;57.478;12.066;2022-08-03T14:01:58;20.80;99.90
40996;DHT22;26723;57.478;12.066;2022-08-03T14:05:07;20.70;99.90
40996;DHT22;26723;57.478;12.066;2022-08-03T14:08:31;20.70;99.90
40996;DHT22;26723;57.478;12.066;2022-08-03T14:12:23;20.80;99.90
40996;DHT22;26723;57.478;12.066;2022-08-03T14:15:48;20.90;99.90
40996;DHT22;26723;57.478;12.066;2022-08-03T14:19:06;21.10;99.90
40996;DHT22;26723;57.478;12.066;2022-08-03T14:22:25;21.30;99.90
40996;DHT22;26723;57.478;12.066;2022-08-03T14:25:35;21.30;99.90
40996;DHT22;26723;57.478;12.066;2022-08-03T14:28:56;21.30;99.90
40996;DHT22;26723;57.478;12.066;2022-08-03T14:32:11;21.30;99.90
40996;DHT22;26723;57.478;12.066;2022-08-03T14:35:31;21.50;99.90
40996;DHT22;26723;57.478;12.066;2022-08-03T14:38:43;21.60;99.90
40996;DHT22;26723;57.478;12.066;2022-08-03T14:41:59;21.60;99.90
40996;DHT22;26723;57.478;12.066;2022-08-03T14:45:11;21.70;99.90
40996;DHT22;26723;57.478;12.066;2022-08-03T14:48:26;21.80;99.90
40996;DHT22;26723;57.478;12.066;2022-08-03T14:51:56;21.80;99.90
40996;DHT22;26723;57.478;12.066;2022-08-03T14:55:11;21.70;99.90
40996;DHT22;26723;57.478;12.066;2022-08-03T14:58:27;21.80;99.90
40996;DHT22;26723;57.478;12.066;2022-08-03T15:01:38;21.80;99.90
40996;DHT22;26723;57.478;12.066;2022-08-03T15:05:15;21.80;99.90
40996;DHT22;26723;57.478;12.066;2022-08-03T15:08:25;21.80;99.90
40996;DHT22;26723;57.478;12.066;2022-08-03T15:11:37;21.80;99.90
40996;DHT22;26723;57.478;12.066;2022-08-03T15:15:04;21.70;99.90
40996;DHT22;26723;57.478;12.066;2022-08-03T15:18:13;21.50;99.90
40996;DHT22;26723;57.478;12.066;2022-08-03T15:21:25;21.50;99.90
40996;DHT22;26723;57.478;12.066;2022-08-03T15:25:02;21.50;99.90
40996;DHT22;26723;57.478;12.066;2022-08-03T15:28:28;21.60;99.90
40996;DHT22;26723;57.478;12.066;2022-08-03T15:31:57;21.60;99.90
40996;DHT22;26723;57.478;12.066;2022-08-03T15:35:26;21.70;99.90
40996;DHT22;26723;57.478;12.066;2022-08-03T15:38:51;21.80;99.90
40996;DHT22;26723;57.478;12.066;2022-08-03T15:42:02;21.80;99.90
40996;DHT22;26723;57.478;12.066;2022-08-03T15:48:54;22.10;99.90
40996;DHT22;26723;57.478;12.066;2022-08-03T15:52:12;22.20;99.90
40996;DHT22;26723;57.478;12.066;2022-08-03T15:55:41;22.40;99.90
40996;DHT22;26723;57.478;12.066;2022-08-03T15:59:05;22.60;99.90
40996;DHT22;26723;57.478;12.066;2022-08-03T16:02:49;22.80;99.90
40996;DHT22;26723;57.478;12.066;2022-08-03T16:06:07;22.90;99.90
40996;DHT22;26723;57.478;12.066;2022-08-03T16:09:17;22.90;99.90
40996;DHT22;26723;57.478;12.066;2022-08-03T16:12:52;22.90;99.90
40996;DHT22;26723;57.478;12.066;2022-08-03T16:16:12;22.80;99.90
40996;DHT22;26723;57.478;12.066;2022-08-03T16:19:24;22.80;99.90
40996;DHT22;26723;57.478;12.066;2022-08-03T16:23:07;22.80;99.90
40996;DHT22;26723;57.478;12.066;2022-08-03T16:26:23;22.80;99.90
40996;DHT22;26723;57.478;12.066;2022-08-03T16:29:45;22.70;99.90
40996;DHT22;26723;57.478;12.066;2022-08-03T16:33:15;22.70;99.90
40996;DHT22;26723;57.478;12.066;2022-08-03T16:36:30;22.60;99.90
40996;DHT22;26723;57.478;12.066;2022-08-03T16:40:00;22.60;99.90
40996;DHT22;26723;57.478;12.066;2022-08-03T16:43:10;22.40;99.90
40996;DHT22;26723;57.478;12.066;2022-08-03T16:46:46;22.40;99.90
40996;DHT22;26723;57.478;12.066;2022-08-03T16:50:13;22.40;99.90
40996;DHT22;26723;57.478;12.066;2022-08-03T16:53:27;22.30;99.90
40996;DHT22;26723;57.478;12.066;2022-08-03T16:56:57;22.30;99.90
40996;DHT22;26723;57.478;12.066;2022-08-03T17:00:10;22.20;99.90
40996;DHT22;26723;57.478;12.066;2022-08-03T17:03:40;22.20;99.90
40996;DHT22;26723;57.478;12.066;2022-08-03T17:07:08;22.20;99.90
40996;DHT22;26723;57.478;12.066;2022-08-03T17:10:18;22.20;99.90
40996;DHT22;26723;57.478;12.066;2022-08-03T17:13:34;22.10;99.90
40996;DHT22;26723;57.478;12.066;2022-08-03T17:16:47;22.10;99.90
40996;DHT22;26723;57.478;12.066;2022-08-03T17:19:59;22.10;99.90
40996;DHT22;26723;57.478;12.066;2022-08-03T17:23:25;22.10;99.90
40996;DHT22;26723;57.478;12.066;2022-08-03T17:26:45;22.00;99.90
40996;DHT22;26723;57.478;12.066;2022-08-03T17:29:59;22.00;99.90
40996;DHT22;26723;57.478;12.066;2022-08-03T17:33:11;22.00;99.90
40996;DHT22;26723;57.478;12.066;2022-08-03T17:36:26;22.00;99.90
40996;DHT22;26723;57.478;12.066;2022-08-03T17:39:55;21.90;99.90
40996;DHT22;26723;57.478;12.066;2022-08-03T17:43:06;21.90;99.90
40996;DHT22;26723;57.478;12.066;2022-08-03T17:46:36;21.90;99.90
40996;DHT22;26723;57.478;12.066;2022-08-03T17:49:47;21.90;99.90
40996;DHT22;26723;57.478;12.066;2022-08-03T17:53:03;21.90;99.90
40996;DHT22;26723;57.478;12.066;2022-08-03T17:56:27;21.80;99.90
40996;DHT22;26723;57.478;12.066;2022-08-03T18:00:21;21.80;99.90
40996;DHT22;26723;57.478;12.066;2022-08-03T18:04:00;21.80;99.90
40996;DHT22;26723;57.478;12.066;2022-08-03T18:07:20;21.80;99.90
40996;DHT22;26723;57.478;12.066;2022-08-03T18:10:48;21.80;99.90
40996;DHT22;26723;57.478;12.066;2022-08-03T18:14:14;21.80;99.90
40996;DHT22;26723;57.478;12.066;2022-08-03T18:17:27;21.80;99.90
40996;DHT22;26723;57.478;12.066;2022-08-03T18:21:01;21.80;99.90
40996;DHT22;26723;57.478;12.066;2022-08-03T18:24:30;21.70;99.90
40996;DHT22;26723;57.478;12.066;2022-08-03T18:27:40;21.70;99.90
40996;DHT22;26723;57.478;12.066;2022-08-03T18:30:53;21.70;99.90
40996;DHT22;26723;57.478;12.066;2022-08-03T18:34:03;21.70;99.90
40996;DHT22;26723;57.478;12.066;2022-08-03T18:37:35;21.60;99.90
40996;DHT22;26723;57.478;12.066;2022-08-03T18:40:58;21.60;99.90
40996;DHT22;26723;57.478;12.066;2022-08-03T18:44:07;21.60;99.90
40996;DHT22;26723;57.478;12.066;2022-08-03T18:47:49;21.60;99.90
40996;DHT22;26723;57.478;12.066;2022-08-03T18:51:03;21.60;99.90
40996;DHT22;26723;57.478;12.066;2022-08-03T18:54:19;21.50;99.90
40996;DHT22;26723;57.478;12.066;2022-08-03T18:57:52;21.50;99.90
40996;DHT22;26723;57.478;12.066;2022-08-03T19:01:09;21.50;99.90
40996;DHT22;26723;57.478;12.066;2022-08-03T19:04:47;21.50;99.90
40996;DHT22;26723;57.478;12.066;2022-08-03T19:08:16;21.40;99.90
40996;DHT22;26723;57.478;12.066;2022-08-03T19:11:52;21.40;99.90
40996;DHT22;26723;57.478;12.066;2022-08-03T19:15:30;21.40;99.90
40996;DHT22;26723;57.478;12.066;2022-08-03T19:19:09;21.30;99.90
40996;DHT22;26723;57.478;12.066;2022-08-03T19:22:25;21.30;99.90
40996;DHT22;26723;57.478;12.066;2022-08-03T19:25:47;21.30;99.90
40996;DHT22;26723;57.478;12.066;2022-08-03T19:29:12;21.30;99.90
40996;DHT22;26723;57.478;12.066;2022-08-03T19:32:42;21.30;99.90
40996;DHT22;26723;57.478;12.066;2022-08-03T19:36:07;21.20;99.90
40996;DHT22;26723;57.478;12.066;2022-08-03T19:39:37;21.20;99.90
40996;DHT22;26723;57.478;12.066;2022-08-03T19:42:53;21.20;99.90
40996;DHT22;26723;57.478;12.066;2022-08-03T19:46:12;21.20;99.90
40996;DHT22;26723;57.478;12.066;2022-08-03T19:49:26;21.20;99.90
40996;DHT22;26723;57.478;12.066;2022-08-03T19:53:03;21.20;99.90
40996;DHT22;26723;57.478;12.066;2022-08-03T19:56:21;21.10;99.90
40996;DHT22;26723;57.478;12.066;2022-08-03T19:59:33;21.10;99.90
40996;DHT22;26723;57.478;12.066;2022-08-03T20:02:57;21.10;99.90
40996;DHT22;26723;57.478;12.066;2022-08-03T20:06:06;21.10;99.90
40996;DHT22;26723;57.478;12.066;2022-08-03T20:09:15;21.10;99.90
40996;DHT22;26723;57.478;12.066;2022-08-03T20:12:27;21.10;99.90
40996;DHT22;26723;57.478;12.066;2022-08-03T20:15:54;21.00;99.90
40996;DHT22;26723;57.478;12.066;2022-08-03T20:19:15;20.90;99.90
40996;DHT22;26723;57.478;12.066;2022-08-03T20:22:28;20.80;99.90
40996;DHT22;26723;57.478;12.066;2022-08-03T20:25:41;20.80;99.90
40996;DHT22;26723;57.478;12.066;2022-08-03T20:29:14;20.70;99.90
40996;DHT22;26723;57.478;12.066;2022-08-03T20:32:26;20.60;99.90
40996;DHT22;26723;57.478;12.066;2022-08-03T20:35:40;20.60;99.90
40996;DHT22;26723;57.478;12.066;2022-08-03T20:38:54;20.50;99.90
40996;DHT22;26723;57.478;12.066;2022-08-03T20:42:15;20.40;99.90
40996;DHT22;26723;57.478;12.066;2022-08-03T20:45:29;20.40;99.90
40996;DHT22;26723;57.478;12.066;2022-08-03T20:49:03;20.30;99.90
40996;DHT22;26723;57.478;12.066;2022-08-03T20:52:14;20.20;99.90
40996;DHT22;26723;57.478;12.066;2022-08-03T20:55:29;20.20;99.90
40996;DHT22;26723;57.478;12.066;2022-08-03T20:59:04;20.10;99.90
40996;DHT22;26723;57.478;12.066;2022-08-03T21:02:36;20.10;99.90
40996;DHT22;26723;57.478;12.066;2022-08-03T21:05:47;20.00;99.90
40996;DHT22;26723;57.478;12.066;2022-08-03T21:09:04;20.00;99.90
40996;DHT22;26723;57.478;12.066;2022-08-03T21:12:18;20.00;99.90
40996;DHT22;26723;57.478;12.066;2022-08-03T21:15:39;20.10;99.90
40996;DHT22;26723;57.478;12.066;2022-08-03T21:19:09;20.10;99.90
40996;DHT22;26723;57.478;12.066;2022-08-03T21:22:21;20.20;99.90
40996;DHT22;26723;57.478;12.066;2022-08-03T21:25:33;20.20;99.90
40996;DHT22;26723;57.478;12.066;2022-08-03T21:28:51;20.10;99.90
40996;DHT22;26723;57.478;12.066;2022-08-03T21:32:06;20.10;99.90
40996;DHT22;26723;57.478;12.066;2022-08-03T21:35:25;20.00;99.90
40996;DHT22;26723;57.478;12.066;2022-08-03T21:38:35;20.00;99.90
40996;DHT22;26723;57.478;12.066;2022-08-03T21:41:45;20.00;99.90
40996;DHT22;26723;57.478;12.066;2022-08-03T21:44:54;20.00;99.90
40996;DHT22;26723;57.478;12.066;2022-08-03T21:48:04;19.90;99.90
40996;DHT22;26723;57.478;12.066;2022-08-03T21:51:16;19.90;99.90
40996;DHT22;26723;57.478;12.066;2022-08-03T21:54:34;19.90;99.90
40996;DHT22;26723;57.478;12.066;2022-08-03T21:58:10;19.90;99.90
40996;DHT22;26723;57.478;12.066;2022-08-03T22:01:29;19.80;99.90
40996;DHT22;26723;57.478;12.066;2022-08-03T22:04:42;19.80;99.90
40996;DHT22;26723;57.478;12.066;2022-08-03T22:08:03;19.80;99.90
40996;DHT22;26723;57.478;12.066;2022-08-03T22:11:17;19.80;99.90
40996;DHT22;26723;57.478;12.066;2022-08-03T22:14:37;19.80;99.90
40996;DHT22;26723;57.478;12.066;2022-08-03T22:17:46;19.80;99.90
40996;DHT22;26723;57.478;12.066;2022-08-03T22:21:06;19.80;99.90
40996;DHT22;26723;57.478;12.066;2022-08-03T22:24:23;19.80;99.90
40996;DHT22;26723;57.478;12.066;2022-08-03T22:27:37;19.80;99.90
40996;DHT22;26723;57.478;12.066;2022-08-03T22:30:54;19.80;99.90
40996;DHT22;26723;57.478;12.066;2022-08-03T22:34:27;19.80;99.90
40996;DHT22;26723;57.478;12.066;2022-08-03T22:37:45;19.70;99.90
40996;DHT22;26723;57.478;12.066;2022-08-03T22:44:38;19.70;99.90
40996;DHT22;26723;57.478;12.066;2022-08-03T22:47:59;19.80;99.90
40996;DHT22;26723;57.478;12.066;2022-08-03T22:51:35;19.70;99.90
40996;DHT22;26723;57.478;12.066;2022-08-03T22:55:11;19.70;99.90
40996;DHT22;26723;57.478;12.066;2022-08-03T22:58:31;19.70;99.90
40996;DHT22;26723;57.478;12.066;2022-08-03T23:01:52;19.60;99.90
40996;DHT22;26723;57.478;12.066;2022-08-03T23:05:14;19.60;99.90
40996;DHT22;26723;57.478;12.066;2022-08-03T23:08:50;19.60;99.90